createdAt,value
2019-01-06T04:54:57.251Z,6.00
2019-01-06T04:57:38.770Z,6.07
2019-01-06T05:00:24.834Z,5.93
2019-01-06T05:03:11.955Z,5.17
2019-01-06T05:06:01.913Z,7.40
2019-01-06T05:08:55.191Z,6.33
2019-01-06T05:11:48.384Z,5.47
2019-01-06T05:14:34.286Z,5.80
2019-01-06T05:17:30.718Z,5.30
2019-01-06T05:20:36.123Z,6.60
2019-01-06T05:23:22.288Z,6.10
2019-01-06T05:26:07.985Z,5.22
2019-01-06T05:28:53.846Z,5.77
2019-01-06T05:31:39.716Z,6.20
2019-01-06T05:34:25.709Z,6.70
2019-01-06T05:37:11.672Z,4.00
2019-01-06T05:39:54.950Z,5.63
2019-01-06T05:42:50.903Z,5.50
2019-01-06T05:45:36.587Z,5.10
2019-01-06T05:48:36.180Z,4.10
2019-01-06T05:51:22.037Z,5.90
2019-01-06T05:54:21.393Z,5.33
2019-01-06T05:57:20.928Z,3.60
2019-01-06T06:00:10.938Z,4.07
2019-01-06T06:02:49.792Z,5.23
2019-01-06T06:05:39.703Z,5.53
2019-01-06T06:08:18.722Z,3.63
2019-01-06T06:11:11.222Z,5.67
2019-01-06T06:14:01.151Z,2.87
2019-01-06T06:16:47.102Z,4.22
2019-01-06T06:19:39.075Z,4.17
2019-01-06T06:22:35.431Z,4.53
2019-01-06T06:25:28.187Z,4.65
2019-01-06T06:28:18.169Z,4.17
2019-01-06T06:31:05.334Z,5.17
2019-01-06T06:34:06.003Z,4.45
2019-01-06T06:36:50.929Z,4.03
2019-01-06T06:39:36.695Z,4.25
2019-01-06T06:42:23.371Z,4.50
2019-01-06T06:45:13.697Z,4.00
2019-01-06T06:47:59.433Z,4.63
2019-01-06T06:50:45.353Z,4.92
2019-01-06T06:53:35.706Z,4.40
2019-01-06T06:56:35.129Z,4.87
2019-01-06T06:59:34.202Z,4.03
2019-01-06T07:02:37.909Z,4.00
2019-01-06T07:05:31.248Z,3.80
2019-01-06T07:08:21.501Z,5.10
2019-01-06T07:11:27.098Z,4.30
2019-01-06T07:14:16.668Z,3.93
2019-01-06T07:17:20.259Z,4.53
2019-01-06T07:20:22.740Z,5.17
2019-01-06T07:23:18.841Z,4.03
2019-01-06T07:26:25.117Z,4.63
2019-01-06T07:29:30.270Z,5.10
2019-01-06T07:32:32.197Z,4.50
2019-01-06T07:35:18.099Z,4.40
2019-01-06T07:38:11.099Z,4.57
2019-01-06T07:40:58.528Z,4.80
2019-01-06T07:43:44.320Z,5.50
2019-01-06T07:46:31.446Z,4.60
2019-01-06T07:49:27.672Z,5.10
2019-01-06T07:52:20.830Z,5.10
2019-01-06T07:55:08.761Z,3.93
2019-01-06T07:57:52.662Z,4.77
2019-01-06T08:00:48.818Z,5.50
2019-01-06T08:03:35.953Z,4.70
2019-01-06T08:06:25.872Z,4.90
2019-01-06T08:09:11.763Z,5.40
2019-01-06T08:11:57.442Z,5.90
2019-01-06T08:14:47.046Z,5.20
2019-01-06T08:17:33.035Z,5.27
2019-01-06T08:20:23.327Z,4.23
2019-01-06T08:23:09.021Z,5.10
2019-01-06T08:26:02.136Z,6.60
2019-01-06T08:28:49.244Z,6.10
2019-01-06T08:31:35.128Z,5.97
2019-01-06T08:34:17.849Z,5.70
2019-01-06T08:37:23.277Z,6.00
2019-01-06T08:40:22.453Z,6.00
2019-01-06T08:43:08.035Z,6.07
2019-01-06T08:45:58.671Z,6.27
2019-01-06T08:48:45.411Z,5.73
2019-01-06T08:51:31.382Z,7.77
2019-01-06T08:54:17.469Z,5.17
2019-01-06T08:57:10.387Z,7.47
2019-01-06T09:00:00.255Z,7.43
2019-01-06T09:02:46.017Z,5.33
2019-01-06T09:05:45.481Z,7.00
2019-01-06T09:08:32.620Z,8.97
2019-01-06T09:11:18.565Z,7.00
2019-01-06T09:14:14.536Z,6.20
2019-01-06T09:17:04.804Z,7.00
2019-01-06T09:19:50.639Z,5.50
2019-01-06T09:22:36.486Z,8.07
2019-01-06T09:25:22.913Z,7.43
2019-01-06T09:28:08.934Z,7.13
2019-01-06T09:31:02.980Z,6.43
2019-01-06T09:33:50.096Z,7.03
2019-01-06T09:36:46.278Z,6.30
2019-01-06T09:39:33.384Z,7.13
2019-01-06T09:42:38.812Z,6.20
2019-01-06T09:45:26.707Z,6.80
2019-01-06T09:48:13.869Z,7.43
2019-01-06T09:50:59.850Z,6.87
2019-01-06T09:53:45.503Z,6.40
2019-01-06T09:56:32.653Z,7.10
2019-01-06T09:59:18.325Z,7.73
2019-01-06T10:02:05.507Z,8.23
2019-01-06T10:04:51.346Z,6.10
2019-01-06T10:07:40.311Z,8.67
2019-01-06T10:10:30.198Z,8.77
2019-01-06T10:13:23.538Z,7.10
2019-01-06T10:16:09.558Z,7.83
2019-01-06T10:19:00.070Z,7.70
2019-01-06T10:21:46.399Z,8.00
2019-01-06T10:24:51.878Z,7.50
2019-01-06T10:27:33.686Z,8.63
2019-01-06T10:30:30.147Z,7.97
2019-01-06T10:33:16.945Z,8.60
2019-01-06T10:36:07.085Z,9.50
2019-01-06T10:39:03.487Z,7.97
2019-01-06T10:41:52.427Z,9.10
2019-01-06T10:44:42.671Z,9.13
2019-01-06T10:47:28.441Z,9.33
2019-01-06T10:50:14.305Z,9.43
2019-01-06T10:53:08.081Z,8.90
2019-01-06T10:55:54.543Z,9.30
2019-01-06T10:58:40.525Z,8.87
2019-01-06T11:01:26.609Z,8.20
2019-01-06T11:04:29.202Z,8.03
2019-01-06T11:07:15.113Z,8.90
2019-01-06T11:10:01.123Z,8.00
2019-01-06T11:13:00.663Z,7.60
2019-01-06T11:15:51.118Z,6.50
2019-01-06T13:26:30.108Z,7.00
2019-01-06T13:29:26.212Z,5.33
2019-01-06T13:32:12.851Z,4.50
2019-01-06T13:35:18.499Z,5.20
2019-01-06T13:38:11.370Z,4.00
2019-01-06T13:41:03.057Z,4.93
2019-01-06T13:43:59.301Z,3.77
2019-01-06T13:46:47.395Z,3.83
2019-01-06T13:49:40.581Z,3.60
2019-01-06T13:52:26.197Z,3.50
2019-01-06T13:55:16.313Z,4.17
2019-01-06T13:58:03.462Z,3.50
2019-01-06T14:00:59.777Z,3.60
2019-01-06T14:03:45.570Z,4.37
2019-01-06T14:06:31.477Z,3.60
2019-01-06T14:09:36.603Z,3.27
2019-01-06T14:12:14.508Z,3.17
2019-01-06T14:15:01.667Z,3.13
2019-01-06T14:17:47.677Z,2.80
2019-01-06T14:20:47.076Z,2.73
2019-01-06T14:23:40.440Z,4.13
2019-01-06T14:26:30.596Z,2.63
2019-01-06T14:29:32.690Z,3.43
2019-01-06T14:32:22.581Z,3.20
2019-01-06T14:35:09.858Z,2.70
2019-01-06T14:37:54.560Z,2.80
2019-01-06T14:40:44.490Z,3.47
2019-01-06T14:43:30.357Z,3.20
2019-01-06T14:46:17.510Z,2.90
2019-01-06T14:49:03.761Z,2.97
2019-01-06T14:51:57.148Z,4.00
2019-01-06T14:54:43.092Z,3.60
2019-01-06T14:57:34.022Z,3.83
2019-01-06T15:00:39.151Z,3.80
2019-01-06T15:03:24.744Z,4.97
2019-01-06T15:06:27.290Z,4.23
2019-01-06T15:09:18.682Z,3.67
2019-01-06T15:12:04.546Z,4.40
2019-01-06T15:14:53.833Z,3.90
2019-01-06T15:17:39.923Z,5.20
2019-01-06T15:20:25.835Z,3.77
2019-01-06T15:23:19.050Z,5.37
2019-01-06T15:26:15.025Z,4.30
2019-01-06T15:32:19.194Z,4.33
2019-01-06T15:35:04.820Z,3.70
